首页
METAR-TAF:

METAR-TAF

机场 :

喀土穆国际机场

喀土穆, 苏丹共和国

纬度: 15-36N, 经度: 032-33E, 海拔: 382米

当前天气观测

该预报发布于28分钟前的03:00 UTC
风速4节,风向西
温度 34°C
湿度 20%
气压 1006 hPa
能见度10公里或以上
少量云层高于5000英尺
多云层高于14000英尺

METAR: HSSS 250300Z 27004KT 9999 FEW050 BKN140 34/08 Q1006 NOSIG

时间: 06:28 (03:28 UTC)

预报

该预报发布于4小时和28分钟前的23:00 UTC
预报有效从25日的 00点(UTC)到 26日的 06点(UTC)
风速12节,风向,有时为22节阵风
能见度10公里或以上
少量云层高于4000英尺
散云层高于14000英尺
短暂存在
从 25日的 00点(UTC)到 25日的 03点(UTC)
能見度: 6000
少量云层高于4500英尺, 积雨云.
雷暴, 雨

TAF: HSSS 242300Z 2500/2606 10012G22KT 9999 FEW040 SCT140 TEMPO 2500/2503 6000 TSRA FEW045CB

超过4000个机场的气象观测和天气预报(METAR&TAF报告)。

可查询的气象台以黄色和红色小点在地图上表示。

将鼠标移到小点上方,可查看气象台名称。

然后点击查看天气观测和预报。

如需切换地图:点击带黑十字的绿色按钮放大地图;点击带横线的绿色按钮缩小地图;或者点击绿色箭头查看邻近地区的地图。


METAR-TAF: